sensor_id;sensor_type;location;lat;lon;timestamp;P1;durP1;ratioP1;P2;durP2;ratioP2
66189;SDS011;52992;52.084;5.412;2022-08-01T00:00:49;6.33;;;4.13;;
66189;SDS011;52992;52.084;5.412;2022-08-01T00:03:16;5.90;;;3.97;;
66189;SDS011;52992;52.084;5.412;2022-08-01T00:05:43;6.60;;;4.00;;
66189;SDS011;52992;52.084;5.412;2022-08-01T00:08:10;6.03;;;3.73;;
66189;SDS011;52992;52.084;5.412;2022-08-01T00:10:37;6.50;;;4.00;;
66189;SDS011;52992;52.084;5.412;2022-08-01T00:13:04;6.23;;;3.80;;
66189;SDS011;52992;52.084;5.412;2022-08-01T00:15:31;5.00;;;3.63;;
66189;SDS011;52992;52.084;5.412;2022-08-01T00:17:58;5.27;;;4.63;;
66189;SDS011;52992;52.084;5.412;2022-08-01T00:20:25;6.67;;;4.00;;
66189;SDS011;52992;52.084;5.412;2022-08-01T00:22:52;7.80;;;4.80;;
66189;SDS011;52992;52.084;5.412;2022-08-01T00:25:18;5.67;;;4.50;;
66189;SDS011;52992;52.084;5.412;2022-08-01T00:27:59;7.63;;;5.67;;
66189;SDS011;52992;52.084;5.412;2022-08-01T00:30:26;11.27;;;6.60;;
66189;SDS011;52992;52.084;5.412;2022-08-01T00:32:53;6.90;;;4.90;;
66189;SDS011;52992;52.084;5.412;2022-08-01T00:35:19;5.30;;;4.20;;
66189;SDS011;52992;52.084;5.412;2022-08-01T00:37:46;5.43;;;3.80;;
66189;SDS011;52992;52.084;5.412;2022-08-01T00:40:13;6.43;;;4.30;;
66189;SDS011;52992;52.084;5.412;2022-08-01T00:42:40;6.27;;;4.33;;
66189;SDS011;52992;52.084;5.412;2022-08-01T00:45:09;6.23;;;4.17;;
66189;SDS011;52992;52.084;5.412;2022-08-01T00:47:38;8.50;;;4.43;;
66189;SDS011;52992;52.084;5.412;2022-08-01T00:50:05;7.13;;;4.23;;
66189;SDS011;52992;52.084;5.412;2022-08-01T00:52:32;10.13;;;5.13;;
66189;SDS011;52992;52.084;5.412;2022-08-01T00:55:00;5.57;;;3.90;;
66189;SDS011;52992;52.084;5.412;2022-08-01T00:57:27;6.00;;;4.50;;
66189;SDS011;52992;52.084;5.412;2022-08-01T01:00:14;5.43;;;4.00;;
66189;SDS011;52992;52.084;5.412;2022-08-01T01:02:41;6.73;;;4.40;;
66189;SDS011;52992;52.084;5.412;2022-08-01T01:05:10;7.03;;;4.63;;
66189;SDS011;52992;52.084;5.412;2022-08-01T01:10:52;7.90;;;4.00;;
66189;SDS011;52992;52.084;5.412;2022-08-01T01:13:40;8.83;;;3.90;;
66189;SDS011;52992;52.084;5.412;2022-08-01T01:16:35;5.53;;;3.80;;
66189;SDS011;52992;52.084;5.412;2022-08-01T01:19:09;7.90;;;4.00;;
66189;SDS011;52992;52.084;5.412;2022-08-01T01:29:51;6.60;;;4.53;;
66189;SDS011;52992;52.084;5.412;2022-08-01T01:35:04;7.50;;;5.10;;
66189;SDS011;52992;52.084;5.412;2022-08-01T01:37:34;7.53;;;4.43;;
66189;SDS011;52992;52.084;5.412;2022-08-01T01:40:05;10.33;;;5.30;;
66189;SDS011;52992;52.084;5.412;2022-08-01T01:42:33;10.57;;;5.47;;
66189;SDS011;52992;52.084;5.412;2022-08-01T01:45:02;7.97;;;5.30;;
66189;SDS011;52992;52.084;5.412;2022-08-01T01:47:30;7.80;;;5.40;;
66189;SDS011;52992;52.084;5.412;2022-08-01T01:49:59;8.30;;;5.53;;
66189;SDS011;52992;52.084;5.412;2022-08-01T01:52:28;8.37;;;5.33;;
66189;SDS011;52992;52.084;5.412;2022-08-01T01:54:57;7.73;;;5.43;;
66189;SDS011;52992;52.084;5.412;2022-08-01T01:57:27;8.93;;;5.33;;
66189;SDS011;52992;52.084;5.412;2022-08-01T01:59:57;10.00;;;5.77;;
66189;SDS011;52992;52.084;5.412;2022-08-01T02:02:25;11.40;;;5.60;;
66189;SDS011;52992;52.084;5.412;2022-08-01T02:04:53;9.13;;;5.57;;
66189;SDS011;52992;52.084;5.412;2022-08-01T02:07:22;9.50;;;5.20;;
66189;SDS011;52992;52.084;5.412;2022-08-01T02:09:51;11.23;;;6.13;;
66189;SDS011;52992;52.084;5.412;2022-08-01T02:12:18;10.90;;;6.27;;
66189;SDS011;52992;52.084;5.412;2022-08-01T02:14:48;10.70;;;5.50;;
66189;SDS011;52992;52.084;5.412;2022-08-01T02:17:16;8.60;;;5.50;;
66189;SDS011;52992;52.084;5.412;2022-08-01T02:19:44;8.73;;;5.10;;
66189;SDS011;52992;52.084;5.412;2022-08-01T02:22:19;8.93;;;4.83;;
66189;SDS011;52992;52.084;5.412;2022-08-01T02:24:54;9.00;;;5.77;;
66189;SDS011;52992;52.084;5.412;2022-08-01T02:27:28;10.03;;;5.60;;
66189;SDS011;52992;52.084;5.412;2022-08-01T02:30:05;8.87;;;5.53;;
66189;SDS011;52992;52.084;5.412;2022-08-01T02:32:36;9.23;;;5.60;;
66189;SDS011;52992;52.084;5.412;2022-08-01T02:35:26;11.10;;;5.67;;
66189;SDS011;52992;52.084;5.412;2022-08-01T02:37:55;9.47;;;5.77;;
66189;SDS011;52992;52.084;5.412;2022-08-01T02:40:23;9.17;;;5.53;;
66189;SDS011;52992;52.084;5.412;2022-08-01T02:42:54;8.37;;;5.43;;
66189;SDS011;52992;52.084;5.412;2022-08-01T02:45:24;7.47;;;5.23;;
66189;SDS011;52992;52.084;5.412;2022-08-01T02:47:58;8.30;;;5.63;;
66189;SDS011;52992;52.084;5.412;2022-08-01T02:50:29;7.20;;;5.17;;
66189;SDS011;52992;52.084;5.412;2022-08-01T02:52:57;8.60;;;4.77;;
66189;SDS011;52992;52.084;5.412;2022-08-01T02:55:25;7.83;;;4.93;;
66189;SDS011;52992;52.084;5.412;2022-08-01T02:57:54;8.27;;;5.00;;
66189;SDS011;52992;52.084;5.412;2022-08-01T03:00:26;6.17;;;4.70;;
66189;SDS011;52992;52.084;5.412;2022-08-01T03:02:54;6.20;;;4.83;;
66189;SDS011;52992;52.084;5.412;2022-08-01T03:05:22;7.03;;;4.50;;
66189;SDS011;52992;52.084;5.412;2022-08-01T03:07:51;7.63;;;4.43;;
66189;SDS011;52992;52.084;5.412;2022-08-01T03:10:20;6.43;;;4.90;;
66189;SDS011;52992;52.084;5.412;2022-08-01T03:12:47;7.20;;;4.77;;
66189;SDS011;52992;52.084;5.412;2022-08-01T03:15:16;7.23;;;4.80;;
66189;SDS011;52992;52.084;5.412;2022-08-01T03:17:45;5.87;;;4.30;;
66189;SDS011;52992;52.084;5.412;2022-08-01T03:20:14;7.13;;;5.07;;
66189;SDS011;52992;52.084;5.412;2022-08-01T03:22:42;7.07;;;4.87;;
66189;SDS011;52992;52.084;5.412;2022-08-01T03:25:11;6.23;;;4.50;;
66189;SDS011;52992;52.084;5.412;2022-08-01T03:27:40;8.50;;;4.97;;
66189;SDS011;52992;52.084;5.412;2022-08-01T03:30:09;6.83;;;5.03;;
66189;SDS011;52992;52.084;5.412;2022-08-01T03:32:37;7.03;;;4.87;;
66189;SDS011;52992;52.084;5.412;2022-08-01T03:35:05;6.80;;;4.90;;
66189;SDS011;52992;52.084;5.412;2022-08-01T03:37:40;8.80;;;5.00;;
66189;SDS011;52992;52.084;5.412;2022-08-01T03:40:31;8.97;;;5.13;;
66189;SDS011;52992;52.084;5.412;2022-08-01T03:43:10;6.57;;;4.57;;
66189;SDS011;52992;52.084;5.412;2022-08-01T03:45:45;6.67;;;5.03;;
66189;SDS011;52992;52.084;5.412;2022-08-01T03:48:19;10.00;;;4.87;;
66189;SDS011;52992;52.084;5.412;2022-08-01T03:50:53;8.43;;;5.10;;
66189;SDS011;52992;52.084;5.412;2022-08-01T03:53:24;6.53;;;5.00;;
66189;SDS011;52992;52.084;5.412;2022-08-01T03:55:54;8.43;;;5.27;;
66189;SDS011;52992;52.084;5.412;2022-08-01T03:58:22;8.60;;;4.97;;
66189;SDS011;52992;52.084;5.412;2022-08-01T04:00:50;7.30;;;5.17;;
66189;SDS011;52992;52.084;5.412;2022-08-01T04:03:17;10.10;;;5.37;;
66189;SDS011;52992;52.084;5.412;2022-08-01T04:05:44;7.97;;;5.13;;
66189;SDS011;52992;52.084;5.412;2022-08-01T04:08:11;6.90;;;4.87;;
66189;SDS011;52992;52.084;5.412;2022-08-01T04:10:38;6.83;;;5.63;;
66189;SDS011;52992;52.084;5.412;2022-08-01T04:13:05;11.47;;;5.13;;
66189;SDS011;52992;52.084;5.412;2022-08-01T04:15:32;7.33;;;4.70;;
66189;SDS011;52992;52.084;5.412;2022-08-01T04:17:59;7.20;;;4.93;;
66189;SDS011;52992;52.084;5.412;2022-08-01T04:20:26;22.67;;;7.30;;
66189;SDS011;52992;52.084;5.412;2022-08-01T04:22:53;9.00;;;5.70;;
66189;SDS011;52992;52.084;5.412;2022-08-01T04:25:21;9.93;;;6.20;;
66189;SDS011;52992;52.084;5.412;2022-08-01T04:27:58;12.00;;;6.43;;
66189;SDS011;52992;52.084;5.412;2022-08-01T04:30:30;11.40;;;6.67;;
66189;SDS011;52992;52.084;5.412;2022-08-01T04:33:00;9.87;;;6.20;;
66189;SDS011;52992;52.084;5.412;2022-08-01T04:35:31;11.47;;;6.20;;
66189;SDS011;52992;52.084;5.412;2022-08-01T04:38:21;8.37;;;5.80;;
66189;SDS011;52992;52.084;5.412;2022-08-01T04:40:53;6.80;;;5.23;;
66189;SDS011;52992;52.084;5.412;2022-08-01T04:43:20;10.40;;;5.40;;
66189;SDS011;52992;52.084;5.412;2022-08-01T04:45:49;7.50;;;5.13;;
66189;SDS011;52992;52.084;5.412;2022-08-01T04:48:17;8.30;;;5.57;;
66189;SDS011;52992;52.084;5.412;2022-08-01T04:50:48;8.90;;;6.40;;
66189;SDS011;52992;52.084;5.412;2022-08-01T04:53:18;9.63;;;6.30;;
66189;SDS011;52992;52.084;5.412;2022-08-01T04:55:48;8.87;;;5.93;;
66189;SDS011;52992;52.084;5.412;2022-08-01T04:58:15;6.90;;;5.33;;
66189;SDS011;52992;52.084;5.412;2022-08-01T05:00:44;6.97;;;5.27;;
66189;SDS011;52992;52.084;5.412;2022-08-01T05:03:14;5.87;;;4.40;;
66189;SDS011;52992;52.084;5.412;2022-08-01T05:05:41;8.00;;;4.80;;
66189;SDS011;52992;52.084;5.412;2022-08-01T05:08:07;6.90;;;4.57;;
66189;SDS011;52992;52.084;5.412;2022-08-01T05:10:36;9.13;;;4.23;;
66189;SDS011;52992;52.084;5.412;2022-08-01T05:13:03;5.60;;;3.50;;
66189;SDS011;52992;52.084;5.412;2022-08-01T05:15:30;6.70;;;3.70;;
66189;SDS011;52992;52.084;5.412;2022-08-01T05:17:57;5.37;;;4.00;;
66189;SDS011;52992;52.084;5.412;2022-08-01T05:20:24;4.17;;;3.30;;
66189;SDS011;52992;52.084;5.412;2022-08-01T05:22:51;3.90;;;2.93;;
66189;SDS011;52992;52.084;5.412;2022-08-01T05:25:17;2.77;;;2.17;;
66189;SDS011;52992;52.084;5.412;2022-08-01T05:28:04;3.17;;;2.87;;
66189;SDS011;52992;52.084;5.412;2022-08-01T05:30:31;2.90;;;2.47;;
66189;SDS011;52992;52.084;5.412;2022-08-01T05:32:58;2.33;;;2.10;;
66189;SDS011;52992;52.084;5.412;2022-08-01T05:35:25;2.30;;;2.10;;
66189;SDS011;52992;52.084;5.412;2022-08-01T05:38:12;5.10;;;2.37;;
66189;SDS011;52992;52.084;5.412;2022-08-01T05:40:40;3.40;;;2.40;;
66189;SDS011;52992;52.084;5.412;2022-08-01T05:43:10;2.50;;;2.30;;
66189;SDS011;52992;52.084;5.412;2022-08-01T05:45:37;3.23;;;2.77;;
66189;SDS011;52992;52.084;5.412;2022-08-01T05:48:04;4.10;;;2.50;;
66189;SDS011;52992;52.084;5.412;2022-08-01T05:50:34;3.90;;;2.27;;
66189;SDS011;52992;52.084;5.412;2022-08-01T05:53:01;2.30;;;2.10;;
66189;SDS011;52992;52.084;5.412;2022-08-01T05:55:28;2.50;;;2.30;;
66189;SDS011;52992;52.084;5.412;2022-08-01T05:57:55;2.60;;;2.40;;
66189;SDS011;52992;52.084;5.412;2022-08-01T06:00:22;2.53;;;2.33;;
66189;SDS011;52992;52.084;5.412;2022-08-01T06:02:51;6.83;;;2.40;;
66189;SDS011;52992;52.084;5.412;2022-08-01T06:05:18;2.63;;;2.43;;
66189;SDS011;52992;52.084;5.412;2022-08-01T06:07:45;2.87;;;2.13;;
66189;SDS011;52992;52.084;5.412;2022-08-01T06:10:12;2.27;;;2.03;;
66189;SDS011;52992;52.084;5.412;2022-08-01T06:12:38;2.30;;;1.70;;
66189;SDS011;52992;52.084;5.412;2022-08-01T06:15:06;2.20;;;2.00;;
66189;SDS011;52992;52.084;5.412;2022-08-01T06:17:33;2.43;;;2.23;;
66189;SDS011;52992;52.084;5.412;2022-08-01T06:20:00;2.23;;;1.93;;
66189;SDS011;52992;52.084;5.412;2022-08-01T06:22:27;2.30;;;2.10;;
66189;SDS011;52992;52.084;5.412;2022-08-01T06:24:56;2.17;;;1.97;;
66189;SDS011;52992;52.084;5.412;2022-08-01T06:27:23;3.20;;;1.87;;
66189;SDS011;52992;52.084;5.412;2022-08-01T06:29:52;2.43;;;2.20;;
66189;SDS011;52992;52.084;5.412;2022-08-01T06:32:22;2.20;;;2.00;;
66189;SDS011;52992;52.084;5.412;2022-08-01T06:34:53;2.40;;;2.20;;
66189;SDS011;52992;52.084;5.412;2022-08-01T06:37:20;3.53;;;2.20;;
66189;SDS011;52992;52.084;5.412;2022-08-01T06:39:48;2.30;;;2.00;;
66189;SDS011;52992;52.084;5.412;2022-08-01T06:42:16;2.73;;;2.10;;
66189;SDS011;52992;52.084;5.412;2022-08-01T06:44:43;3.47;;;2.20;;
66189;SDS011;52992;52.084;5.412;2022-08-01T06:47:11;2.00;;;1.90;;
66189;SDS011;52992;52.084;5.412;2022-08-01T06:49:38;2.30;;;1.80;;
66189;SDS011;52992;52.084;5.412;2022-08-01T06:52:05;2.10;;;1.93;;
66189;SDS011;52992;52.084;5.412;2022-08-01T06:54:32;2.80;;;2.17;;
66189;SDS011;52992;52.084;5.412;2022-08-01T06:56:59;2.30;;;2.10;;
66189;SDS011;52992;52.084;5.412;2022-08-01T06:59:26;2.30;;;2.07;;
66189;SDS011;52992;52.084;5.412;2022-08-01T07:01:53;3.63;;;2.30;;
66189;SDS011;52992;52.084;5.412;2022-08-01T07:04:20;2.90;;;2.40;;
66189;SDS011;52992;52.084;5.412;2022-08-01T07:06:47;2.77;;;2.30;;
66189;SDS011;52992;52.084;5.412;2022-08-01T07:09:13;5.90;;;3.67;;
66189;SDS011;52992;52.084;5.412;2022-08-01T07:11:41;8.43;;;3.97;;
66189;SDS011;52992;52.084;5.412;2022-08-01T07:14:08;5.17;;;2.70;;
66189;SDS011;52992;52.084;5.412;2022-08-01T07:16:35;4.27;;;2.27;;
66189;SDS011;52992;52.084;5.412;2022-08-01T07:19:02;3.43;;;2.20;;
66189;SDS011;52992;52.084;5.412;2022-08-01T07:21:29;4.13;;;2.77;;
66189;SDS011;52992;52.084;5.412;2022-08-01T07:24:10;2.60;;;2.13;;
66189;SDS011;52992;52.084;5.412;2022-08-01T07:26:41;5.07;;;2.33;;
66189;SDS011;52992;52.084;5.412;2022-08-01T07:29:26;19.23;;;4.00;;
66189;SDS011;52992;52.084;5.412;2022-08-01T07:31:53;5.87;;;3.53;;
66189;SDS011;52992;52.084;5.412;2022-08-01T07:34:21;4.13;;;3.20;;
66189;SDS011;52992;52.084;5.412;2022-08-01T07:36:49;4.83;;;3.70;;
66189;SDS011;52992;52.084;5.412;2022-08-01T07:39:17;3.07;;;2.60;;
66189;SDS011;52992;52.084;5.412;2022-08-01T07:41:44;3.00;;;2.67;;
66189;SDS011;52992;52.084;5.412;2022-08-01T07:44:31;3.37;;;2.50;;
66189;SDS011;52992;52.084;5.412;2022-08-01T07:46:58;2.80;;;2.60;;
66189;SDS011;52992;52.084;5.412;2022-08-01T07:49:25;3.20;;;2.80;;
66189;SDS011;52992;52.084;5.412;2022-08-01T07:51:52;4.20;;;2.67;;
66189;SDS011;52992;52.084;5.412;2022-08-01T07:54:30;2.80;;;2.60;;
66189;SDS011;52992;52.084;5.412;2022-08-01T07:57:00;3.57;;;2.70;;
66189;SDS011;52992;52.084;5.412;2022-08-01T07:59:27;3.60;;;2.73;;
66189;SDS011;52992;52.084;5.412;2022-08-01T08:01:54;4.00;;;3.03;;
66189;SDS011;52992;52.084;5.412;2022-08-01T08:04:21;5.33;;;3.97;;
66189;SDS011;52992;52.084;5.412;2022-08-01T08:06:48;7.63;;;4.13;;
66189;SDS011;52992;52.084;5.412;2022-08-01T08:09:15;7.50;;;4.47;;
66189;SDS011;52992;52.084;5.412;2022-08-01T08:11:45;6.60;;;4.00;;
66189;SDS011;52992;52.084;5.412;2022-08-01T08:14:14;7.73;;;4.77;;
66189;SDS011;52992;52.084;5.412;2022-08-01T08:16:42;8.80;;;5.23;;
66189;SDS011;52992;52.084;5.412;2022-08-01T08:19:09;8.97;;;5.03;;
66189;SDS011;52992;52.084;5.412;2022-08-01T08:21:37;11.47;;;4.93;;
66189;SDS011;52992;52.084;5.412;2022-08-01T08:24:04;13.13;;;4.73;;
66189;SDS011;52992;52.084;5.412;2022-08-01T08:26:56;10.30;;;4.60;;
66189;SDS011;52992;52.084;5.412;2022-08-01T08:29:24;11.93;;;4.90;;
66189;SDS011;52992;52.084;5.412;2022-08-01T08:31:53;10.47;;;4.33;;
66189;SDS011;52992;52.084;5.412;2022-08-01T08:34:24;9.40;;;4.80;;
66189;SDS011;52992;52.084;5.412;2022-08-01T08:36:52;11.27;;;5.40;;
66189;SDS011;52992;52.084;5.412;2022-08-01T08:39:19;9.17;;;5.20;;
66189;SDS011;52992;52.084;5.412;2022-08-01T08:41:46;10.83;;;4.50;;
66189;SDS011;52992;52.084;5.412;2022-08-01T08:44:15;12.47;;;4.90;;
66189;SDS011;52992;52.084;5.412;2022-08-01T08:46:44;10.93;;;5.40;;
66189;SDS011;52992;52.084;5.412;2022-08-01T08:49:20;11.87;;;5.03;;
66189;SDS011;52992;52.084;5.412;2022-08-01T08:51:50;6.57;;;3.93;;
66189;SDS011;52992;52.084;5.412;2022-08-01T08:54:20;10.50;;;3.97;;
66189;SDS011;52992;52.084;5.412;2022-08-01T08:56:56;5.63;;;3.83;;
66189;SDS011;52992;52.084;5.412;2022-08-01T08:59:24;12.43;;;4.60;;
66189;SDS011;52992;52.084;5.412;2022-08-01T09:01:52;11.27;;;4.07;;
66189;SDS011;52992;52.084;5.412;2022-08-01T09:04:22;10.00;;;4.30;;
66189;SDS011;52992;52.084;5.412;2022-08-01T09:06:52;10.97;;;4.50;;
66189;SDS011;52992;52.084;5.412;2022-08-01T09:09:19;19.70;;;4.60;;
66189;SDS011;52992;52.084;5.412;2022-08-01T09:11:46;10.67;;;4.37;;
66189;SDS011;52992;52.084;5.412;2022-08-01T09:14:23;10.53;;;4.37;;
66189;SDS011;52992;52.084;5.412;2022-08-01T09:16:59;12.53;;;5.20;;
66189;SDS011;52992;52.084;5.412;2022-08-01T09:19:36;9.80;;;3.97;;
66189;SDS011;52992;52.084;5.412;2022-08-01T09:22:16;10.13;;;4.10;;
66189;SDS011;52992;52.084;5.412;2022-08-01T09:25:00;12.93;;;3.90;;
66189;SDS011;52992;52.084;5.412;2022-08-01T09:27:28;8.40;;;3.27;;
66189;SDS011;52992;52.084;5.412;2022-08-01T09:30:06;9.77;;;3.83;;
66189;SDS011;52992;52.084;5.412;2022-08-01T09:32:51;8.97;;;3.40;;
66189;SDS011;52992;52.084;5.412;2022-08-01T09:35:43;12.57;;;3.87;;
66189;SDS011;52992;52.084;5.412;2022-08-01T09:43:14;7.00;;;3.47;;
66189;SDS011;52992;52.084;5.412;2022-08-01T09:45:41;7.63;;;3.30;;
66189;SDS011;52992;52.084;5.412;2022-08-01T09:48:16;6.70;;;3.53;;
66189;SDS011;52992;52.084;5.412;2022-08-01T09:50:45;9.93;;;4.23;;
66189;SDS011;52992;52.084;5.412;2022-08-01T09:53:13;7.10;;;3.20;;
66189;SDS011;52992;52.084;5.412;2022-08-01T09:56:01;11.50;;;3.40;;
66189;SDS011;52992;52.084;5.412;2022-08-01T09:58:56;5.47;;;2.90;;
66189;SDS011;52992;52.084;5.412;2022-08-01T10:01:28;7.23;;;2.67;;
66189;SDS011;52992;52.084;5.412;2022-08-01T10:06:41;7.33;;;3.90;;
66189;SDS011;52992;52.084;5.412;2022-08-01T10:09:30;7.67;;;3.30;;
66189;SDS011;52992;52.084;5.412;2022-08-01T10:12:06;10.27;;;3.33;;
66189;SDS011;52992;52.084;5.412;2022-08-01T10:14:41;9.77;;;3.60;;
66189;SDS011;52992;52.084;5.412;2022-08-01T10:17:12;7.83;;;3.43;;
66189;SDS011;52992;52.084;5.412;2022-08-01T10:19:44;5.73;;;2.60;;
66189;SDS011;52992;52.084;5.412;2022-08-01T10:22:12;10.73;;;3.20;;
66189;SDS011;52992;52.084;5.412;2022-08-01T10:24:44;10.47;;;3.63;;
66189;SDS011;52992;52.084;5.412;2022-08-01T10:27:14;10.90;;;4.13;;
66189;SDS011;52992;52.084;5.412;2022-08-01T10:30:01;9.67;;;3.33;;
66189;SDS011;52992;52.084;5.412;2022-08-01T10:32:47;6.03;;;2.93;;
66189;SDS011;52992;52.084;5.412;2022-08-01T10:35:16;8.00;;;2.67;;
66189;SDS011;52992;52.084;5.412;2022-08-01T10:38:04;6.80;;;2.67;;
66189;SDS011;52992;52.084;5.412;2022-08-01T10:40:38;3.40;;;2.67;;
66189;SDS011;52992;52.084;5.412;2022-08-01T10:43:09;6.23;;;2.63;;
66189;SDS011;52992;52.084;5.412;2022-08-01T10:45:36;4.93;;;2.50;;
66189;SDS011;52992;52.084;5.412;2022-08-01T10:50:51;6.37;;;2.67;;
66189;SDS011;52992;52.084;5.412;2022-08-01T10:53:21;6.33;;;2.83;;
66189;SDS011;52992;52.084;5.412;2022-08-01T10:56:07;5.97;;;2.73;;
66189;SDS011;52992;52.084;5.412;2022-08-01T10:58:42;6.93;;;2.40;;
66189;SDS011;52992;52.084;5.412;2022-08-01T11:09:45;6.30;;;3.00;;
66189;SDS011;52992;52.084;5.412;2022-08-01T11:12:07;6.53;;;2.67;;
66189;SDS011;52992;52.084;5.412;2022-08-01T11:20:10;2.43;;;1.77;;
66189;SDS011;52992;52.084;5.412;2022-08-01T11:28:24;4.47;;;2.00;;
66189;SDS011;52992;52.084;5.412;2022-08-01T11:38:44;2.83;;;2.10;;
66189;SDS011;52992;52.084;5.412;2022-08-01T11:41:29;8.03;;;3.10;;
66189;SDS011;52992;52.084;5.412;2022-08-01T11:46:54;8.40;;;2.80;;
66189;SDS011;52992;52.084;5.412;2022-08-01T11:52:05;7.80;;;3.23;;
66189;SDS011;52992;52.084;5.412;2022-08-01T11:54:50;7.43;;;3.27;;
66189;SDS011;52992;52.084;5.412;2022-08-01T12:00:19;7.47;;;2.70;;
66189;SDS011;52992;52.084;5.412;2022-08-01T12:02:46;7.33;;;2.60;;
66189;SDS011;52992;52.084;5.412;2022-08-01T12:05:24;5.43;;;2.50;;
66189;SDS011;52992;52.084;5.412;2022-08-01T12:07:53;4.47;;;2.03;;
66189;SDS011;52992;52.084;5.412;2022-08-01T12:10:22;3.93;;;1.83;;
66189;SDS011;52992;52.084;5.412;2022-08-01T12:12:54;4.33;;;2.00;;
66189;SDS011;52992;52.084;5.412;2022-08-01T12:15:28;3.77;;;2.17;;
66189;SDS011;52992;52.084;5.412;2022-08-01T12:18:01;4.53;;;2.23;;
66189;SDS011;52992;52.084;5.412;2022-08-01T12:20:34;5.80;;;1.97;;
66189;SDS011;52992;52.084;5.412;2022-08-01T12:23:06;8.93;;;2.30;;
66189;SDS011;52992;52.084;5.412;2022-08-01T12:25:36;5.93;;;2.27;;
66189;SDS011;52992;52.084;5.412;2022-08-01T12:28:06;6.40;;;3.10;;
66189;SDS011;52992;52.084;5.412;2022-08-01T12:30:35;3.53;;;1.90;;
66189;SDS011;52992;52.084;5.412;2022-08-01T12:33:03;5.53;;;1.97;;
66189;SDS011;52992;52.084;5.412;2022-08-01T12:35:32;3.73;;;2.17;;
66189;SDS011;52992;52.084;5.412;2022-08-01T12:38:07;5.27;;;2.10;;
66189;SDS011;52992;52.084;5.412;2022-08-01T12:40:45;3.83;;;2.07;;
66189;SDS011;52992;52.084;5.412;2022-08-01T12:43:19;4.93;;;1.90;;
66189;SDS011;52992;52.084;5.412;2022-08-01T12:45:55;4.30;;;1.80;;
66189;SDS011;52992;52.084;5.412;2022-08-01T12:48:25;3.80;;;1.70;;
66189;SDS011;52992;52.084;5.412;2022-08-01T12:50:52;3.77;;;1.47;;
66189;SDS011;52992;52.084;5.412;2022-08-01T12:53:23;3.53;;;1.20;;
66189;SDS011;52992;52.084;5.412;2022-08-01T12:55:53;4.77;;;1.80;;
66189;SDS011;52992;52.084;5.412;2022-08-01T12:58:29;4.20;;;1.67;;
66189;SDS011;52992;52.084;5.412;2022-08-01T13:01:07;2.83;;;1.30;;
66189;SDS011;52992;52.084;5.412;2022-08-01T13:03:35;2.40;;;1.40;;
66189;SDS011;52992;52.084;5.412;2022-08-01T13:06:09;4.23;;;1.80;;
66189;SDS011;52992;52.084;5.412;2022-08-01T13:08:43;2.33;;;1.63;;
66189;SDS011;52992;52.084;5.412;2022-08-01T13:11:12;3.83;;;1.43;;
66189;SDS011;52992;52.084;5.412;2022-08-01T13:13:47;5.63;;;1.67;;
66189;SDS011;52992;52.084;5.412;2022-08-01T13:16:16;9.83;;;1.70;;
66189;SDS011;52992;52.084;5.412;2022-08-01T13:19:04;2.27;;;1.50;;
66189;SDS011;52992;52.084;5.412;2022-08-01T13:21:31;3.23;;;1.57;;
66189;SDS011;52992;52.084;5.412;2022-08-01T13:24:22;2.67;;;1.50;;
66189;SDS011;52992;52.084;5.412;2022-08-01T13:26:51;3.00;;;2.07;;
66189;SDS011;52992;52.084;5.412;2022-08-01T13:29:29;2.57;;;1.60;;
66189;SDS011;52992;52.084;5.412;2022-08-01T13:32:21;2.70;;;1.40;;
66189;SDS011;52992;52.084;5.412;2022-08-01T13:35:05;2.53;;;1.53;;
66189;SDS011;52992;52.084;5.412;2022-08-01T13:37:34;2.27;;;1.37;;
66189;SDS011;52992;52.084;5.412;2022-08-01T13:40:04;2.43;;;1.70;;
66189;SDS011;52992;52.084;5.412;2022-08-01T13:42:32;1.93;;;1.63;;
66189;SDS011;52992;52.084;5.412;2022-08-01T13:44:59;1.50;;;1.40;;
66189;SDS011;52992;52.084;5.412;2022-08-01T13:47:29;1.70;;;1.10;;
66189;SDS011;52992;52.084;5.412;2022-08-01T13:49:58;2.60;;;1.40;;
66189;SDS011;52992;52.084;5.412;2022-08-01T13:52:28;2.53;;;1.77;;
66189;SDS011;52992;52.084;5.412;2022-08-01T13:54:56;2.03;;;1.30;;
66189;SDS011;52992;52.084;5.412;2022-08-01T13:57:24;1.97;;;1.40;;
66189;SDS011;52992;52.084;5.412;2022-08-01T14:00:03;3.93;;;1.77;;
66189;SDS011;52992;52.084;5.412;2022-08-01T14:02:37;2.93;;;1.50;;
66189;SDS011;52992;52.084;5.412;2022-08-01T14:05:04;3.13;;;1.40;;
66189;SDS011;52992;52.084;5.412;2022-08-01T14:07:31;1.50;;;1.30;;
66189;SDS011;52992;52.084;5.412;2022-08-01T14:09:58;2.13;;;1.45;;
66189;SDS011;52992;52.084;5.412;2022-08-01T14:12:45;2.57;;;1.33;;
66189;SDS011;52992;52.084;5.412;2022-08-01T14:15:16;1.57;;;1.10;;
66189;SDS011;52992;52.084;5.412;2022-08-01T14:18:03;1.23;;;0.90;;
66189;SDS011;52992;52.084;5.412;2022-08-01T14:20:31;1.30;;;1.17;;
66189;SDS011;52992;52.084;5.412;2022-08-01T14:22:59;2.47;;;1.20;;
66189;SDS011;52992;52.084;5.412;2022-08-01T14:25:26;1.37;;;1.10;;
66189;SDS011;52992;52.084;5.412;2022-08-01T14:28:13;1.97;;;1.47;;
66189;SDS011;52992;52.084;5.412;2022-08-01T14:30:39;1.43;;;1.10;;
66189;SDS011;52992;52.084;5.412;2022-08-01T14:33:09;3.40;;;1.20;;
66189;SDS011;52992;52.084;5.412;2022-08-01T14:35:37;2.03;;;1.27;;
66189;SDS011;52992;52.084;5.412;2022-08-01T14:38:24;1.80;;;1.07;;
66189;SDS011;52992;52.084;5.412;2022-08-01T14:40:57;4.33;;;1.50;;
66189;SDS011;52992;52.084;5.412;2022-08-01T14:43:24;1.93;;;1.53;;
66189;SDS011;52992;52.084;5.412;2022-08-01T14:45:58;2.60;;;1.07;;
66189;SDS011;52992;52.084;5.412;2022-08-01T14:48:26;1.50;;;1.40;;
66189;SDS011;52992;52.084;5.412;2022-08-01T14:50:52;2.93;;;1.17;;
66189;SDS011;52992;52.084;5.412;2022-08-01T14:53:19;1.77;;;1.00;;
66189;SDS011;52992;52.084;5.412;2022-08-01T14:55:46;2.23;;;1.00;;
66189;SDS011;52992;52.084;5.412;2022-08-01T14:58:13;1.20;;;1.10;;
66189;SDS011;52992;52.084;5.412;2022-08-01T15:00:40;1.17;;;0.90;;
66189;SDS011;52992;52.084;5.412;2022-08-01T15:03:07;1.43;;;1.10;;
66189;SDS011;52992;52.084;5.412;2022-08-01T15:05:34;2.97;;;1.20;;
66189;SDS011;52992;52.084;5.412;2022-08-01T15:08:03;1.50;;;1.13;;
66189;SDS011;52992;52.084;5.412;2022-08-01T15:10:31;2.03;;;1.13;;
66189;SDS011;52992;52.084;5.412;2022-08-01T15:12:58;3.63;;;1.30;;
66189;SDS011;52992;52.084;5.412;2022-08-01T15:15:26;4.00;;;1.30;;
66189;SDS011;52992;52.084;5.412;2022-08-01T15:17:53;2.40;;;1.40;;
66189;SDS011;52992;52.084;5.412;2022-08-01T15:20:20;4.30;;;1.30;;
66189;SDS011;52992;52.084;5.412;2022-08-01T15:22:47;3.43;;;1.23;;
66189;SDS011;52992;52.084;5.412;2022-08-01T15:25:14;1.40;;;1.23;;
66189;SDS011;52992;52.084;5.412;2022-08-01T15:27:41;2.00;;;1.27;;
66189;SDS011;52992;52.084;5.412;2022-08-01T15:30:08;3.20;;;1.40;;
66189;SDS011;52992;52.084;5.412;2022-08-01T15:32:35;5.60;;;1.63;;
66189;SDS011;52992;52.084;5.412;2022-08-01T15:35:02;2.33;;;1.50;;
66189;SDS011;52992;52.084;5.412;2022-08-01T15:37:29;1.30;;;1.13;;
66189;SDS011;52992;52.084;5.412;2022-08-01T15:39:56;2.73;;;1.30;;
66189;SDS011;52992;52.084;5.412;2022-08-01T15:42:23;3.50;;;1.30;;
66189;SDS011;52992;52.084;5.412;2022-08-01T15:44:52;1.40;;;1.30;;
66189;SDS011;52992;52.084;5.412;2022-08-01T15:47:19;3.17;;;1.30;;
66189;SDS011;52992;52.084;5.412;2022-08-01T15:49:50;4.33;;;1.30;;
66189;SDS011;52992;52.084;5.412;2022-08-01T15:52:17;2.03;;;1.10;;
66189;SDS011;52992;52.084;5.412;2022-08-01T15:54:48;2.87;;;1.23;;
66189;SDS011;52992;52.084;5.412;2022-08-01T15:57:15;2.60;;;1.30;;
66189;SDS011;52992;52.084;5.412;2022-08-01T15:59:42;2.07;;;1.33;;
66189;SDS011;52992;52.084;5.412;2022-08-01T16:02:09;3.47;;;1.40;;
66189;SDS011;52992;52.084;5.412;2022-08-01T16:04:36;3.43;;;1.50;;
66189;SDS011;52992;52.084;5.412;2022-08-01T16:07:04;1.83;;;1.17;;